createdAt,value
2018-04-28T03:27:09.118Z,0
2018-04-28T03:27:29.318Z,0
2018-04-28T03:27:49.494Z,0
2018-04-28T03:50:38.898Z,0
2018-04-28T04:14:43.959Z,10
2018-04-28T04:15:04.149Z,10
2018-04-28T04:15:24.335Z,10
2018-04-28T04:15:44.516Z,10
2018-04-28T04:16:04.712Z,10
2018-04-28T04:16:24.875Z,10
2018-04-28T04:16:45.049Z,10
2018-04-28T04:24:15.186Z,15
2018-04-28T04:24:35.355Z,15
2018-04-28T04:28:10.228Z,15
2018-04-28T04:28:30.389Z,15
2018-04-28T04:28:50.560Z,15
2018-04-28T04:29:10.747Z,15
2018-04-28T04:29:30.920Z,15
2018-04-28T04:29:51.080Z,15
2018-04-28T04:36:00.689Z,15
2018-04-28T04:36:20.877Z,15
2018-04-28T04:36:41.026Z,15
2018-04-28T04:37:01.193Z,15
2018-04-28T04:37:21.373Z,15
2018-04-28T04:37:41.577Z,20
2018-04-28T04:40:14.528Z,20
2018-04-28T04:40:34.688Z,20
2018-04-28T04:41:53.541Z,20
2018-04-28T04:42:13.718Z,20
2018-04-28T04:42:33.889Z,20
2018-04-28T04:42:54.089Z,20
2018-04-28T04:43:14.246Z,20
2018-04-28T04:43:34.410Z,20
2018-04-28T04:43:54.551Z,20
2018-04-28T04:44:14.768Z,20
2018-04-28T04:44:34.997Z,20
2018-04-28T04:44:55.152Z,20
2018-04-28T04:45:15.342Z,20
2018-04-28T04:45:35.535Z,20
2018-04-28T04:45:55.707Z,20
2018-04-28T04:49:31.791Z,20
2018-04-28T04:49:51.968Z,20
2018-04-28T04:50:12.146Z,20
2018-04-28T04:50:32.301Z,20
2018-04-28T04:50:52.470Z,20
2018-04-28T04:51:12.646Z,20
2018-04-28T04:51:32.808Z,20
2018-04-28T04:51:52.974Z,20
2018-04-28T04:52:13.137Z,20
2018-04-28T04:52:33.294Z,20
2018-04-28T04:52:53.470Z,20
2018-04-28T04:53:13.646Z,20
2018-04-28T04:53:33.793Z,20
2018-04-28T04:53:53.957Z,20
2018-04-28T04:54:14.129Z,20
2018-04-28T04:54:34.296Z,20
2018-04-28T04:54:54.464Z,20
2018-04-28T04:55:14.636Z,20
2018-04-28T04:55:34.812Z,20
2018-04-28T04:55:55.004Z,20
2018-04-28T04:56:15.192Z,20
2018-04-28T04:56:35.353Z,20
2018-04-28T04:56:55.522Z,20
2018-04-28T04:57:15.756Z,20
2018-04-28T04:57:35.918Z,20
2018-04-28T04:57:56.096Z,20
2018-04-28T04:58:16.290Z,20
2018-04-28T04:58:36.406Z,20
2018-04-28T04:58:56.581Z,20
2018-04-28T04:59:16.777Z,20
2018-04-28T04:59:36.926Z,20
2018-04-28T04:59:57.104Z,20
2018-04-28T05:00:17.255Z,20
2018-04-28T05:00:37.425Z,20
2018-04-28T05:00:57.591Z,20
2018-04-28T05:01:17.758Z,20
2018-04-28T05:01:37.938Z,20
2018-04-28T05:01:58.096Z,20
2018-04-28T05:02:18.282Z,25
2018-04-28T05:02:38.462Z,25
2018-04-28T05:02:58.634Z,25
2018-04-28T05:03:18.801Z,25
2018-04-28T05:03:38.993Z,25
2018-04-28T05:03:59.159Z,25
2018-04-28T05:04:19.319Z,25
2018-04-28T05:04:39.484Z,25
2018-04-28T05:04:59.642Z,25
2018-04-28T05:05:19.815Z,25
2018-04-28T05:05:39.989Z,25
2018-04-28T05:06:00.166Z,25
2018-04-28T05:06:20.344Z,25
2018-04-28T05:06:40.522Z,25
2018-04-28T05:07:00.697Z,25
2018-04-28T05:07:20.867Z,25
2018-04-28T05:07:41.032Z,25
2018-04-28T05:08:01.208Z,25
2018-04-28T05:08:21.382Z,25
2018-04-28T05:08:41.551Z,25
2018-04-28T05:09:01.724Z,25
2018-04-28T05:09:21.870Z,25
2018-04-28T05:09:42.058Z,25
2018-04-28T05:10:02.238Z,25
2018-04-28T05:10:22.401Z,25
2018-04-28T05:10:42.590Z,25
2018-04-28T05:11:02.760Z,25
2018-04-28T05:11:22.943Z,25
2018-04-28T05:11:43.123Z,25
2018-04-28T05:12:03.292Z,25
2018-04-28T05:12:23.458Z,25
2018-04-28T05:12:43.649Z,25
2018-04-28T05:13:03.824Z,25
2018-04-28T05:13:23.959Z,25
2018-04-28T05:13:44.131Z,25
2018-04-28T05:14:04.307Z,25
2018-04-28T05:14:24.505Z,25
2018-04-28T05:14:44.692Z,25
2018-04-28T05:15:04.870Z,25
2018-04-28T05:15:25.051Z,25
2018-04-28T05:15:45.216Z,25
2018-04-28T05:16:05.367Z,25
2018-04-28T05:16:25.566Z,25
2018-04-28T05:16:45.793Z,25
2018-04-28T05:17:05.921Z,25
2018-04-28T05:17:26.098Z,25
2018-04-28T05:17:46.281Z,25
2018-04-28T05:18:06.468Z,30
2018-04-28T05:18:26.632Z,30
2018-04-28T05:18:46.785Z,30
2018-04-28T05:19:06.961Z,30
2018-04-28T05:19:27.140Z,30
2018-04-28T05:19:47.300Z,30
2018-04-28T05:20:07.492Z,30
2018-04-28T05:20:27.664Z,30
2018-04-28T05:20:47.878Z,30
2018-04-28T05:21:08.060Z,30
2018-04-28T05:21:28.241Z,30
2018-04-28T05:21:48.407Z,30
2018-04-28T05:22:08.603Z,30
2018-04-28T05:22:28.773Z,30
2018-04-28T05:22:48.966Z,30
2018-04-28T05:23:09.146Z,30
2018-04-28T05:23:29.328Z,30
2018-04-28T05:23:49.515Z,30
2018-04-28T05:24:09.681Z,30
2018-04-28T05:24:29.859Z,30
2018-04-28T05:24:50.052Z,30
2018-04-28T05:25:10.241Z,30
2018-04-28T05:25:30.430Z,30
2018-04-28T05:25:50.611Z,30
2018-04-28T05:26:10.791Z,30
2018-04-28T05:26:31.030Z,30
2018-04-28T05:26:51.210Z,30
2018-04-28T05:27:11.422Z,30
2018-04-28T05:27:31.593Z,30
2018-04-28T05:27:51.783Z,30
2018-04-28T05:28:11.986Z,30
2018-04-28T05:28:32.129Z,30
2018-04-28T05:28:52.306Z,30
2018-04-28T05:29:12.473Z,30
2018-04-28T05:29:32.644Z,30
2018-04-28T05:29:52.798Z,30
2018-04-28T05:30:13.013Z,30
2018-04-28T05:30:33.173Z,30
2018-04-28T05:30:53.380Z,30
2018-04-28T05:31:13.588Z,30
2018-04-28T05:31:33.779Z,30
2018-04-28T05:31:53.966Z,30
2018-04-28T05:32:14.147Z,30
2018-04-28T05:32:34.355Z,30
2018-04-28T05:32:54.532Z,30
2018-04-28T05:33:14.711Z,30
2018-04-28T05:33:34.897Z,30
2018-04-28T05:33:55.069Z,30
2018-04-28T05:34:15.242Z,30
2018-04-28T05:34:35.441Z,30
2018-04-28T05:34:55.610Z,30
2018-04-28T05:35:15.776Z,30
2018-04-28T05:35:35.957Z,30
2018-04-28T05:35:56.133Z,30
2018-04-28T05:36:16.313Z,30
2018-04-28T05:36:36.481Z,30
2018-04-28T05:36:56.654Z,30
2018-04-28T05:37:16.881Z,30
2018-04-28T05:37:37.027Z,30
2018-04-28T05:37:57.225Z,30
2018-04-28T05:38:17.377Z,30
2018-04-28T05:38:37.529Z,30
2018-04-28T05:38:57.721Z,30
2018-04-28T05:39:17.909Z,30
2018-04-28T05:39:38.066Z,30
2018-04-28T05:39:58.244Z,30
2018-04-28T05:40:18.424Z,30
2018-04-28T05:40:38.594Z,30
2018-04-28T05:40:58.786Z,30
2018-04-28T05:41:18.954Z,30
2018-04-28T05:41:39.117Z,35
2018-04-28T05:41:59.306Z,35
2018-04-28T05:42:19.499Z,35
2018-04-28T05:42:39.673Z,35
2018-04-28T05:42:59.840Z,35
2018-04-28T05:43:19.998Z,35
2018-04-28T05:43:40.178Z,35
2018-04-28T05:44:00.355Z,35
2018-04-28T05:44:20.562Z,35
2018-04-28T05:44:40.737Z,35
2018-04-28T05:45:00.923Z,30
2018-04-28T05:45:21.108Z,30
2018-04-28T05:45:41.295Z,30
2018-04-28T05:46:01.464Z,30
2018-04-28T05:46:21.651Z,30
2018-04-28T05:46:41.780Z,30
2018-04-28T05:47:01.979Z,30
2018-04-28T05:47:22.156Z,30
2018-04-28T05:47:42.337Z,30
2018-04-28T05:48:02.514Z,25
2018-04-28T05:48:22.766Z,25
2018-04-28T05:48:42.920Z,25
2018-04-28T05:49:03.094Z,25
2018-04-28T05:49:23.261Z,25
2018-04-28T05:49:43.446Z,25
2018-04-28T05:50:03.612Z,25
2018-04-28T05:50:23.781Z,25
2018-04-28T05:50:43.959Z,25
2018-04-28T05:51:04.144Z,25
2018-04-28T05:51:24.319Z,25
2018-04-28T05:51:44.492Z,25
2018-04-28T05:52:04.653Z,25
2018-04-28T05:52:24.834Z,25
2018-04-28T05:52:45.017Z,25
2018-04-28T05:53:05.199Z,25
2018-04-28T05:53:25.389Z,25
2018-04-28T05:53:45.565Z,25
2018-04-28T05:54:05.746Z,25
2018-04-28T05:54:25.914Z,25
2018-04-28T05:54:46.114Z,25
2018-04-28T05:55:06.276Z,25
2018-04-28T05:55:26.478Z,25
2018-04-28T05:55:46.647Z,25
2018-04-28T05:56:06.819Z,30
2018-04-28T05:56:26.981Z,30
2018-04-28T05:56:47.190Z,30
2018-04-28T05:57:07.369Z,25
2018-04-28T05:57:27.556Z,25
2018-04-28T05:57:47.808Z,25
2018-04-28T05:58:07.921Z,25
2018-04-28T05:58:28.104Z,25
2018-04-28T05:58:48.303Z,25
2018-04-28T05:59:08.488Z,25
2018-04-28T05:59:28.659Z,25
2018-04-28T05:59:48.853Z,25
2018-04-28T06:00:09.041Z,25
2018-04-28T06:00:29.220Z,25
2018-04-28T06:00:49.403Z,25
2018-04-28T06:01:09.586Z,25
2018-04-28T06:01:29.746Z,25
2018-04-28T06:01:49.919Z,25
2018-04-28T06:02:10.085Z,25
2018-04-28T06:02:30.263Z,25
2018-04-28T06:02:50.450Z,25
2018-04-28T06:03:10.611Z,25
2018-04-28T06:03:30.834Z,25
2018-04-28T06:03:50.996Z,25
2018-04-28T06:04:11.189Z,25
2018-04-28T06:04:31.354Z,25
2018-04-28T06:04:51.533Z,25
2018-04-28T06:05:11.723Z,25
2018-04-28T06:05:31.892Z,30
2018-04-28T06:05:52.090Z,30
2018-04-28T06:06:12.268Z,30
2018-04-28T06:06:32.457Z,30
2018-04-28T06:06:52.618Z,30
2018-04-28T06:07:12.779Z,30
2018-04-28T06:07:32.977Z,30
2018-04-28T06:07:53.153Z,30
2018-04-28T06:08:13.310Z,30
2018-04-28T06:08:33.490Z,30
2018-04-28T06:08:53.653Z,30
2018-04-28T06:09:13.839Z,30
2018-04-28T06:09:33.996Z,30
2018-04-28T06:09:54.174Z,30
2018-04-28T06:10:14.387Z,30
2018-04-28T06:10:34.546Z,30
2018-04-28T06:10:54.731Z,30
2018-04-28T06:11:14.922Z,30
2018-04-28T06:11:35.105Z,30
2018-04-28T06:11:55.290Z,30
2018-04-28T06:12:15.472Z,30
2018-04-28T06:12:35.653Z,30
2018-04-28T06:12:55.843Z,35
2018-04-28T06:13:16.022Z,35
2018-04-28T06:13:36.187Z,35
2018-04-28T06:13:56.360Z,35
2018-04-28T06:14:16.534Z,35
2018-04-28T06:14:36.718Z,35
2018-04-28T06:14:56.898Z,35
2018-04-28T06:15:17.076Z,35
2018-04-28T06:15:37.250Z,35
2018-04-28T06:15:57.401Z,35
2018-04-28T06:16:17.563Z,35
2018-04-28T06:16:37.722Z,35
2018-04-28T06:16:57.885Z,35
2018-04-28T06:17:18.065Z,35
2018-04-28T06:17:38.244Z,35
2018-04-28T06:17:58.497Z,30
2018-04-28T06:18:18.672Z,30
2018-04-28T06:18:38.843Z,30
2018-04-28T06:18:59.053Z,35
2018-04-28T06:19:19.219Z,35
2018-04-28T06:19:39.401Z,35
2018-04-28T06:19:59.665Z,35
2018-04-28T06:20:20.100Z,35
2018-04-28T06:20:40.282Z,35
2018-04-28T06:21:00.474Z,35
2018-04-28T06:21:20.664Z,40
2018-04-28T06:21:40.835Z,40
2018-04-28T06:22:01.020Z,40
2018-04-28T06:22:21.196Z,40
2018-04-28T06:22:41.372Z,40
2018-04-28T06:23:01.526Z,40
2018-04-28T06:23:21.683Z,40
2018-04-28T06:23:41.855Z,40
2018-04-28T06:24:02.115Z,40
2018-04-28T06:24:23.237Z,40
2018-04-28T06:24:43.766Z,40
2018-04-28T06:25:03.952Z,40
2018-04-28T06:25:24.135Z,40
2018-04-28T06:25:44.302Z,40
2018-04-28T06:26:04.578Z,40
2018-04-28T06:26:24.657Z,40
2018-04-28T06:26:44.832Z,40
2018-04-28T06:27:05.002Z,40
2018-04-28T06:27:25.178Z,40
2018-04-28T06:27:45.362Z,40
2018-04-28T06:28:05.556Z,40
2018-04-28T06:28:25.731Z,40
2018-04-28T06:28:45.932Z,40
2018-04-28T06:29:06.124Z,40
2018-04-28T06:29:26.298Z,40
2018-04-28T06:29:46.463Z,40
2018-04-28T06:30:06.620Z,40
2018-04-28T06:30:26.770Z,40
2018-04-28T06:30:46.959Z,40
2018-04-28T06:31:07.118Z,40
2018-04-28T06:31:27.327Z,40
2018-04-28T06:31:47.511Z,40
2018-04-28T06:32:07.680Z,40
2018-04-28T06:32:27.859Z,40
2018-04-28T06:32:48.024Z,40
2018-04-28T06:33:08.199Z,40
2018-04-28T06:33:28.367Z,40
2018-04-28T06:33:48.540Z,40
2018-04-28T06:34:08.715Z,40
2018-04-28T06:34:28.883Z,40
2018-04-28T06:34:49.056Z,40
2018-04-28T06:35:09.239Z,40
2018-04-28T06:35:29.408Z,35
2018-04-28T06:35:49.670Z,35
2018-04-28T06:36:09.768Z,35
2018-04-28T06:36:29.928Z,35
2018-04-28T06:36:50.104Z,35
2018-04-28T06:37:10.268Z,35
2018-04-28T06:37:30.446Z,40
2018-04-28T06:37:50.656Z,40
2018-04-28T06:38:10.875Z,40
2018-04-28T06:38:31.078Z,35
2018-04-28T06:38:51.366Z,35
2018-04-28T06:39:11.546Z,35
2018-04-28T06:39:31.701Z,35
2018-04-28T06:39:51.883Z,35
2018-04-28T06:40:12.054Z,35
2018-04-28T06:40:32.270Z,35
2018-04-28T06:40:52.441Z,35
2018-04-28T06:41:12.697Z,40
2018-04-28T06:41:32.791Z,35
2018-04-28T06:41:52.971Z,40
2018-04-28T06:42:13.158Z,40
2018-04-28T06:42:33.396Z,35
2018-04-28T06:42:53.783Z,40
2018-04-28T06:43:16.861Z,40
2018-04-28T06:43:37.563Z,40
2018-04-28T06:43:57.743Z,40
2018-04-28T06:44:18.022Z,40
2018-04-28T06:44:38.198Z,40
2018-04-28T06:44:58.380Z,40
2018-04-28T06:45:18.577Z,40
2018-04-28T06:45:38.778Z,40
2018-04-28T06:45:58.962Z,40
2018-04-28T06:46:19.171Z,40
2018-04-28T06:46:39.380Z,40
2018-04-28T06:46:59.559Z,40
2018-04-28T06:47:19.931Z,40
2018-04-28T06:47:40.142Z,40
2018-04-28T06:48:00.385Z,35
2018-04-28T06:48:20.525Z,35
2018-04-28T06:48:40.860Z,35
2018-04-28T06:49:02.001Z,35
2018-04-28T06:49:22.263Z,35
2018-04-28T06:49:42.462Z,35
2018-04-28T06:50:02.688Z,35
2018-04-28T06:50:23.449Z,35
2018-04-28T06:50:43.631Z,35
2018-04-28T06:51:03.954Z,35
2018-04-28T06:51:24.108Z,35
2018-04-28T06:51:44.294Z,35
2018-04-28T06:52:04.493Z,35
2018-04-28T06:52:24.736Z,35
2018-04-28T06:52:44.986Z,35
2018-04-28T06:53:06.897Z,35
2018-04-28T06:53:27.179Z,35
2018-04-28T06:53:47.447Z,35
2018-04-28T06:54:07.644Z,35
2018-04-28T06:54:27.989Z,35
2018-04-28T06:54:48.163Z,35
2018-04-28T06:55:08.413Z,35
2018-04-28T06:55:28.688Z,30
2018-04-28T06:55:48.988Z,30
2018-04-28T06:56:09.344Z,30
2018-04-28T06:56:29.744Z,35
2018-04-28T06:56:49.950Z,35
2018-04-28T06:57:10.420Z,35
2018-04-28T06:57:30.718Z,35
2018-04-28T06:57:50.921Z,35
2018-04-28T06:58:11.199Z,35
2018-04-28T06:58:31.776Z,30
2018-04-28T06:58:52.384Z,35
2018-04-28T06:59:12.661Z,30
2018-04-28T06:59:32.868Z,30
2018-04-28T06:59:53.144Z,30
2018-04-28T07:00:13.464Z,30
2018-04-28T07:00:33.869Z,30
2018-04-28T07:00:54.200Z,30
2018-04-28T07:01:14.469Z,30
2018-04-28T07:01:35.487Z,30
2018-04-28T07:01:55.864Z,30
2018-04-28T07:02:16.110Z,30
2018-04-28T07:02:36.450Z,30
2018-04-28T07:02:56.668Z,25
2018-04-28T07:03:17.887Z,25
2018-04-28T07:03:38.350Z,30
2018-04-28T07:03:58.875Z,30
2018-04-28T07:04:19.104Z,30
2018-04-28T07:04:39.555Z,30
2018-04-28T07:04:59.703Z,30
2018-04-28T07:05:19.957Z,30
2018-04-28T07:05:40.794Z,30
2018-04-28T07:06:01.947Z,35
2018-04-28T07:06:22.378Z,35
2018-04-28T07:06:42.640Z,35
2018-04-28T07:07:03.941Z,35
2018-04-28T07:07:24.875Z,35
2018-04-28T07:07:45.794Z,35
2018-04-28T07:08:08.500Z,35
2018-04-28T07:08:28.992Z,35
2018-04-28T07:08:49.933Z,30
2018-04-28T07:09:10.296Z,30
2018-04-28T07:09:30.580Z,30
2018-04-28T07:09:50.904Z,30
2018-04-28T07:10:11.399Z,30
2018-04-28T07:10:31.685Z,30
2018-04-28T07:10:52.132Z,30
2018-04-28T07:11:12.286Z,30
2018-04-28T07:11:34.502Z,30
2018-04-28T07:11:54.741Z,30
2018-04-28T07:12:14.897Z,30
2018-04-28T07:12:35.144Z,30
2018-04-28T07:12:55.346Z,30
2018-04-28T07:13:15.726Z,30
2018-04-28T07:13:35.965Z,30
2018-04-28T07:13:56.227Z,30
2018-04-28T07:14:16.404Z,30
2018-04-28T07:14:36.615Z,30
2018-04-28T07:14:56.995Z,30
2018-04-28T07:15:17.268Z,30
2018-04-28T07:15:37.469Z,30
2018-04-28T07:15:57.659Z,30
2018-04-28T07:16:17.838Z,30
2018-04-28T07:16:38.120Z,30
2018-04-28T07:16:58.298Z,30
2018-04-28T07:17:18.578Z,30
2018-04-28T07:17:38.845Z,30
2018-04-28T07:17:59.168Z,30
2018-04-28T07:18:19.388Z,30
2018-04-28T07:18:39.828Z,30
2018-04-28T07:19:00.330Z,30
2018-04-28T07:19:20.757Z,30
2018-04-28T07:19:40.921Z,30
2018-04-28T07:20:01.175Z,30
2018-04-28T07:20:21.400Z,30
2018-04-28T07:20:41.771Z,30
2018-04-28T07:21:02.983Z,30
2018-04-28T07:21:23.246Z,30
2018-04-28T07:21:43.613Z,30
2018-04-28T07:22:03.994Z,30
2018-04-28T07:22:24.203Z,30
2018-04-28T07:22:44.602Z,30
2018-04-28T07:23:05.032Z,30
2018-04-28T07:23:25.984Z,30
2018-04-28T07:23:46.346Z,30
2018-04-28T07:24:06.631Z,30
2018-04-28T07:24:27.167Z,30
2018-04-28T07:24:47.591Z,30
2018-04-28T07:25:07.880Z,30
2018-04-28T07:25:28.124Z,30
2018-04-28T07:25:48.428Z,30
2018-04-28T07:26:09.327Z,30
2018-04-28T07:26:29.505Z,30
2018-04-28T07:26:50.914Z,30
2018-04-28T07:27:11.118Z,30
2018-04-28T07:27:31.539Z,30
2018-04-28T07:27:51.847Z,30
2018-04-28T07:28:12.237Z,30
2018-04-28T07:28:32.580Z,30
2018-04-28T07:28:52.782Z,30
2018-04-28T07:29:13.057Z,30
2018-04-28T07:29:33.404Z,30
2018-04-28T07:29:53.791Z,30
2018-04-28T07:30:14.134Z,30
2018-04-28T07:30:34.346Z,30
2018-04-28T07:30:55.400Z,30
2018-04-28T07:31:15.853Z,30
2018-04-28T07:31:36.132Z,30
2018-04-28T07:31:56.348Z,30
2018-04-28T07:32:16.531Z,30
2018-04-28T07:32:36.743Z,30
2018-04-28T07:32:57.078Z,30
2018-04-28T07:33:17.359Z,30
2018-04-28T07:33:37.537Z,30
2018-04-28T07:33:57.793Z,30
2018-04-28T07:34:17.977Z,30
2018-04-28T07:34:38.202Z,30
2018-04-28T07:34:58.456Z,30
2018-04-28T07:35:18.826Z,30
2018-04-28T07:35:38.977Z,30
2018-04-28T07:35:59.210Z,30
2018-04-28T07:36:19.504Z,30
2018-04-28T07:36:40.496Z,30
2018-04-28T07:37:00.850Z,30
2018-04-28T07:37:21.474Z,30
2018-04-28T07:37:41.747Z,30
2018-04-28T07:38:02.040Z,30
2018-04-28T07:38:22.249Z,30
2018-04-28T07:38:42.563Z,30
2018-04-28T07:39:02.734Z,30
2018-04-28T07:39:22.977Z,30
2018-04-28T07:39:42.978Z,30
2018-04-28T07:40:03.181Z,30
2018-04-28T07:40:24.409Z,30
2018-04-28T07:40:45.614Z,30
2018-04-28T07:41:05.816Z,30
2018-04-28T07:41:26.065Z,30
2018-04-28T07:41:46.241Z,30
2018-04-28T07:42:06.400Z,30
2018-04-28T07:42:26.698Z,30
2018-04-28T07:42:46.898Z,30
2018-04-28T07:43:07.071Z,30
2018-04-28T07:43:27.312Z,30
2018-04-28T07:43:47.660Z,30
2018-04-28T07:44:07.856Z,30
2018-04-28T07:44:28.109Z,30
2018-04-28T07:44:48.422Z,30
2018-04-28T07:45:08.632Z,30
2018-04-28T07:45:28.909Z,30
2018-04-28T07:45:49.119Z,30
2018-04-28T07:46:09.354Z,30
2018-04-28T07:46:30.953Z,30
2018-04-28T07:46:51.273Z,30
2018-04-28T07:47:11.794Z,30
2018-04-28T07:47:32.077Z,30
2018-04-28T07:47:52.298Z,30
2018-04-28T07:48:13.367Z,30
2018-04-28T07:48:33.857Z,30
2018-04-28T07:48:54.285Z,30
2018-04-28T07:49:14.522Z,30
2018-04-28T07:49:35.461Z,30
2018-04-28T07:49:55.633Z,30
2018-04-28T07:50:15.827Z,30
2018-04-28T07:50:36.395Z,30
2018-04-28T07:50:57.577Z,30
2018-04-28T07:51:18.027Z,30
2018-04-28T07:51:38.355Z,30
2018-04-28T07:51:58.631Z,30
2018-04-28T07:52:18.833Z,30
2018-04-28T07:52:39.000Z,30
2018-04-28T07:52:59.202Z,30
2018-04-28T07:53:19.460Z,30
2018-04-28T07:53:39.685Z,30
2018-04-28T07:53:59.992Z,30
2018-04-28T07:54:20.241Z,30
2018-04-28T07:54:41.028Z,30
2018-04-28T07:55:01.297Z,30
2018-04-28T07:55:21.498Z,30
2018-04-28T07:55:41.692Z,30
2018-04-28T07:56:01.888Z,30
2018-04-28T07:56:22.029Z,30
2018-04-28T07:56:42.303Z,30
2018-04-28T07:57:02.548Z,30
2018-04-28T07:57:22.729Z,30
2018-04-28T07:57:42.914Z,30
2018-04-28T07:58:03.065Z,30
2018-04-28T07:58:23.289Z,30
2018-04-28T07:58:43.543Z,30
2018-04-28T07:59:18.341Z,30
2018-04-28T07:59:40.505Z,30
2018-04-28T08:00:01.977Z,30
2018-04-28T08:00:22.178Z,30
2018-04-28T08:00:42.538Z,30
2018-04-28T08:01:03.017Z,30
2018-04-28T08:01:23.294Z,30
2018-04-28T08:01:43.648Z,30
2018-04-28T08:02:03.837Z,30
2018-04-28T08:02:24.018Z,30
2018-04-28T08:02:44.226Z,30
2018-04-28T08:03:05.052Z,35
2018-04-28T08:03:25.328Z,30
2018-04-28T08:03:45.477Z,30
2018-04-28T08:04:05.834Z,30
2018-04-28T08:04:26.082Z,30
2018-04-28T08:04:46.245Z,30
2018-04-28T08:05:06.582Z,30
2018-04-28T08:05:26.741Z,30
2018-04-28T08:05:46.899Z,30
2018-04-28T08:06:07.097Z,30
2018-04-28T08:06:27.297Z,30
2018-04-28T08:06:47.524Z,30
2018-04-28T08:07:07.800Z,30
2018-04-28T08:07:28.190Z,30
2018-04-28T08:07:48.446Z,30
2018-04-28T08:08:08.657Z,30
2018-04-28T08:08:28.872Z,30
2018-04-28T08:08:49.054Z,30
2018-04-28T08:09:09.237Z,30
2018-04-28T08:09:29.439Z,30
2018-04-28T08:09:49.820Z,30
2018-04-28T08:10:10.063Z,30
2018-04-28T08:10:30.283Z,30
2018-04-28T08:10:50.446Z,30
2018-04-28T08:11:10.628Z,30
2018-04-28T08:11:30.837Z,30
2018-04-28T08:11:51.031Z,30
2018-04-28T08:12:11.248Z,30
2018-04-28T08:12:31.425Z,30
2018-04-28T08:12:51.681Z,30
2018-04-28T08:13:11.967Z,30
2018-04-28T08:13:32.233Z,30
2018-04-28T08:13:52.396Z,30
2018-04-28T08:14:12.638Z,30
2018-04-28T08:14:32.850Z,30
2018-04-28T08:14:53.050Z,30
2018-04-28T08:15:13.327Z,35
2018-04-28T08:15:33.409Z,35
2018-04-28T08:15:53.595Z,35
2018-04-28T08:16:14.127Z,35
2018-04-28T08:16:34.379Z,35
2018-04-28T08:16:54.719Z,35
2018-04-28T08:17:17.892Z,35
2018-04-28T08:17:38.160Z,35
2018-04-28T08:17:58.481Z,35
2018-04-28T08:18:19.053Z,35
2018-04-28T08:18:39.630Z,35
2018-04-28T08:18:59.955Z,35
2018-04-28T08:19:20.168Z,35
2018-04-28T08:19:40.401Z,35
2018-04-28T08:20:00.618Z,35
2018-04-28T08:20:20.814Z,35
2018-04-28T08:20:41.302Z,35
2018-04-28T08:21:01.529Z,35
2018-04-28T08:21:21.708Z,35
2018-04-28T08:21:42.884Z,35
2018-04-28T08:22:03.073Z,35
2018-04-28T08:22:23.326Z,35
2018-04-28T08:22:43.516Z,35
2018-04-28T08:23:03.761Z,35
2018-04-28T08:23:23.930Z,35
2018-04-28T08:23:44.099Z,40
2018-04-28T08:24:04.292Z,35
2018-04-28T08:24:24.495Z,35
2018-04-28T08:24:44.664Z,35
2018-04-28T08:25:04.812Z,35
2018-04-28T08:25:25.006Z,35
2018-04-28T08:25:45.241Z,35
2018-04-28T08:26:05.432Z,35
2018-04-28T08:26:25.728Z,35
2018-04-28T08:26:45.878Z,35
2018-04-28T08:27:06.064Z,40
2018-04-28T08:27:26.255Z,40
2018-04-28T08:27:46.483Z,40
2018-04-28T08:28:06.752Z,40
2018-04-28T08:28:26.927Z,40
2018-04-28T08:28:47.162Z,40
2018-04-28T08:29:07.325Z,40
2018-04-28T08:29:27.491Z,40
2018-04-28T08:29:47.683Z,40
2018-04-28T08:30:07.960Z,40
2018-04-28T08:30:28.157Z,40
2018-04-28T08:30:48.351Z,40
2018-04-28T08:31:08.521Z,40
2018-04-28T08:31:28.791Z,40
2018-04-28T08:31:48.946Z,40
2018-04-28T08:32:09.134Z,40
2018-04-28T08:32:29.314Z,40
2018-04-28T08:32:49.480Z,40
2018-04-28T08:33:09.684Z,40
2018-04-28T08:33:29.910Z,40
2018-04-28T08:33:50.119Z,40
2018-04-28T08:34:10.299Z,35
2018-04-28T08:34:30.553Z,35
2018-04-28T08:34:50.775Z,35
2018-04-28T08:35:11.061Z,35
2018-04-28T08:35:31.295Z,35
2018-04-28T08:35:51.480Z,35
2018-04-28T08:36:11.690Z,35
2018-04-28T08:36:31.883Z,35
2018-04-28T08:36:52.128Z,35
2018-04-28T08:37:12.356Z,35
2018-04-28T08:37:32.439Z,35
2018-04-28T08:37:52.601Z,35
2018-04-28T08:38:12.829Z,35
2018-04-28T08:38:33.041Z,35
2018-04-28T08:38:53.242Z,35
2018-04-28T08:39:13.435Z,35
2018-04-28T08:39:33.611Z,30
2018-04-28T08:39:53.757Z,30
2018-04-28T08:40:13.930Z,35
2018-04-28T08:40:34.213Z,35
2018-04-28T08:40:54.373Z,35
2018-04-28T08:41:14.628Z,35
2018-04-28T08:41:34.838Z,35
2018-04-28T08:41:55.041Z,35
2018-04-28T08:42:15.262Z,35
2018-04-28T08:42:36.456Z,35
2018-04-28T08:42:56.649Z,35
2018-04-28T08:43:17.030Z,35
2018-04-28T08:43:37.259Z,35
2018-04-28T08:43:57.512Z,35
2018-04-28T08:44:17.671Z,40
2018-04-28T08:44:37.921Z,40
2018-04-28T08:44:58.965Z,40
2018-04-28T08:45:19.403Z,40
2018-04-28T08:45:40.988Z,40
2018-04-28T08:46:01.449Z,40
2018-04-28T08:46:22.562Z,40
2018-04-28T08:46:42.934Z,40
2018-04-28T08:47:03.271Z,40
2018-04-28T08:47:23.693Z,35
2018-04-28T08:47:44.038Z,35
2018-04-28T08:48:04.390Z,35
2018-04-28T08:48:24.932Z,35
2018-04-28T08:48:46.023Z,35
2018-04-28T08:49:06.965Z,35
2018-04-28T08:49:27.189Z,35
2018-04-28T08:49:47.403Z,40
2018-04-28T08:50:07.705Z,40
2018-04-28T08:50:27.912Z,40
2018-04-28T08:50:48.446Z,40
2018-04-28T08:51:09.005Z,40
2018-04-28T08:51:30.059Z,40
2018-04-28T08:51:50.072Z,40
2018-04-28T08:52:10.382Z,40
2018-04-28T08:52:30.596Z,40
2018-04-28T08:52:50.896Z,40
2018-04-28T08:53:11.194Z,35
2018-04-28T08:53:31.498Z,35
2018-04-28T08:53:51.633Z,35
2018-04-28T08:54:11.869Z,40
2018-04-28T08:54:32.185Z,40
2018-04-28T08:54:52.366Z,40
2018-04-28T08:55:12.556Z,40
2018-04-28T08:55:32.782Z,35
2018-04-28T08:55:52.949Z,35
2018-04-28T08:56:13.120Z,35
2018-04-28T08:56:33.391Z,40
2018-04-28T08:56:53.546Z,40
2018-04-28T08:57:13.731Z,40
2018-04-28T08:57:33.933Z,40
2018-04-28T08:57:54.109Z,40
2018-04-28T08:58:14.774Z,40
2018-04-28T08:58:35.211Z,40
2018-04-28T08:58:55.632Z,40
2018-04-28T08:59:15.807Z,40
2018-04-28T08:59:35.998Z,40
2018-04-28T08:59:56.291Z,40
2018-04-28T09:00:16.596Z,40
2018-04-28T09:00:36.776Z,40
2018-04-28T09:00:56.970Z,40
2018-04-28T09:01:17.189Z,45
2018-04-28T09:01:37.381Z,45
2018-04-28T09:01:57.552Z,45
2018-04-28T09:02:17.732Z,45
2018-04-28T09:02:37.884Z,45
2018-04-28T09:02:58.070Z,45
2018-04-28T09:03:18.275Z,45
2018-04-28T09:03:38.473Z,45
2018-04-28T09:03:58.686Z,45
2018-04-28T09:04:18.833Z,45
2018-04-28T09:04:39.010Z,45
2018-04-28T09:04:59.172Z,45
2018-04-28T09:05:19.468Z,45
2018-04-28T09:05:39.645Z,45
2018-04-28T09:05:59.829Z,45
2018-04-28T09:06:20.022Z,45
2018-04-28T09:06:40.346Z,45
2018-04-28T09:07:00.554Z,40
2018-04-28T09:07:20.738Z,45
2018-04-28T09:07:40.983Z,45
2018-04-28T09:08:01.230Z,45
2018-04-28T09:08:21.427Z,40
2018-04-28T09:08:41.599Z,45
2018-04-28T09:09:01.818Z,40
2018-04-28T09:09:21.997Z,45
2018-04-28T09:09:42.221Z,40
2018-04-28T09:10:02.556Z,40
2018-04-28T09:10:22.841Z,40
2018-04-28T09:10:43.111Z,40
2018-04-28T09:11:03.355Z,40
2018-04-28T09:11:24.088Z,40
2018-04-28T09:11:44.604Z,40
2018-04-28T09:12:04.792Z,40
2018-04-28T09:12:25.952Z,45
2018-04-28T09:12:46.277Z,45
2018-04-28T09:13:06.592Z,45
2018-04-28T09:13:27.085Z,45
2018-04-28T09:13:48.483Z,45
2018-04-28T09:14:09.028Z,40
2018-04-28T09:14:29.327Z,40
2018-04-28T09:14:49.596Z,40
2018-04-28T09:15:09.803Z,40
2018-04-28T09:15:30.179Z,45
2018-04-28T09:15:50.698Z,45
2018-04-28T09:16:11.988Z,40
2018-04-28T09:16:32.170Z,40
2018-04-28T09:16:52.733Z,40
2018-04-28T09:17:13.173Z,35
2018-04-28T09:17:33.371Z,35
2018-04-28T09:17:54.474Z,35
2018-04-28T09:18:14.731Z,35
2018-04-28T09:18:35.137Z,35
2018-04-28T09:18:55.377Z,35
2018-04-28T09:19:15.632Z,35
2018-04-28T09:19:35.905Z,35
2018-04-28T09:19:56.261Z,35
2018-04-28T09:20:16.461Z,35
2018-04-28T09:20:36.634Z,35
2018-04-28T09:20:56.903Z,35
2018-04-28T09:21:17.072Z,35
2018-04-28T09:21:37.247Z,35
2018-04-28T09:21:57.429Z,35
2018-04-28T09:22:17.595Z,35
2018-04-28T09:22:37.754Z,35
2018-04-28T09:22:57.928Z,35
2018-04-28T09:23:18.102Z,35
2018-04-28T09:23:38.259Z,35
2018-04-28T09:23:58.441Z,35
2018-04-28T09:24:18.681Z,35
2018-04-28T09:24:38.870Z,35
2018-04-28T09:24:59.083Z,35
2018-04-28T09:25:19.301Z,35